createdAt,value
2022-12-01T00:01:48.752Z,99.90
2022-12-01T00:04:16.651Z,99.90
2022-12-01T00:06:46.981Z,99.90
2022-12-01T00:09:36.183Z,99.90
2022-12-01T00:12:06.470Z,99.90
2022-12-01T00:14:34.125Z,99.90
2022-12-01T00:17:01.733Z,99.90
2022-12-01T00:19:29.345Z,99.90
2022-12-01T00:21:57.336Z,99.90
2022-12-01T00:24:25.493Z,99.90
2022-12-01T00:26:53.149Z,99.90
2022-12-01T00:29:21.032Z,99.90
2022-12-01T00:31:51.155Z,99.90
2022-12-01T00:34:25.668Z,99.90
2022-12-01T00:36:53.332Z,99.90
2022-12-01T00:39:23.358Z,99.90
2022-12-01T00:41:51.020Z,99.90
2022-12-01T00:44:18.732Z,99.90
2022-12-01T00:46:47.372Z,99.90
2022-12-01T00:49:15.877Z,99.90
2022-12-01T00:51:45.143Z,99.90
2022-12-01T00:54:12.908Z,99.90
2022-12-01T00:56:46.846Z,99.90
2022-12-01T00:59:15.526Z,99.90
2022-12-01T01:01:43.233Z,99.90
2022-12-01T01:04:13.372Z,99.90
2022-12-01T01:06:43.421Z,99.90
2022-12-01T01:09:12.908Z,99.90
2022-12-01T01:11:42.026Z,99.90
2022-12-01T01:14:16.063Z,99.90
2022-12-01T01:16:44.058Z,99.90
2022-12-01T01:19:11.643Z,99.90
2022-12-01T01:21:42.383Z,99.90
2022-12-01T01:24:12.762Z,99.90
2022-12-01T01:26:43.540Z,99.90
2022-12-01T01:29:11.208Z,99.90
2022-12-01T01:31:39.386Z,99.90
2022-12-01T01:34:08.099Z,99.90
2022-12-01T01:36:35.715Z,99.90
2022-12-01T01:39:04.824Z,99.90
2022-12-01T01:41:32.381Z,99.90
2022-12-01T01:44:03.105Z,99.90
2022-12-01T01:46:37.958Z,99.90
2022-12-01T01:49:17.370Z,99.90
2022-12-01T01:51:53.500Z,99.90
2022-12-01T01:54:28.409Z,99.90
2022-12-01T01:56:57.731Z,99.90
2022-12-01T01:59:32.292Z,99.90
2022-12-01T02:02:03.199Z,99.90
2022-12-01T02:04:30.944Z,99.90
2022-12-01T02:06:58.740Z,99.90
2022-12-01T02:09:26.282Z,99.90
2022-12-01T02:12:26.046Z,99.90
2022-12-01T02:15:08.693Z,99.90
2022-12-01T02:17:50.188Z,99.90
2022-12-01T02:20:24.056Z,99.90
2022-12-01T02:22:57.854Z,99.90
2022-12-01T02:26:03.344Z,99.90
2022-12-01T02:28:52.778Z,99.90
2022-12-01T02:31:25.305Z,99.90
2022-12-01T02:33:55.797Z,99.90
2022-12-01T02:36:38.304Z,99.90
2022-12-01T02:39:29.338Z,99.90
2022-12-01T02:42:06.693Z,99.90
2022-12-01T02:44:37.759Z,99.90
2022-12-01T02:47:11.801Z,99.90
2022-12-01T02:49:48.758Z,99.90
2022-12-01T02:52:20.321Z,99.90
2022-12-01T02:54:48.671Z,99.90
2022-12-01T02:57:17.210Z,99.90
2022-12-01T02:59:49.897Z,99.90
2022-12-01T03:03:07.981Z,99.90
2022-12-01T03:06:08.732Z,99.90
2022-12-01T03:08:52.995Z,99.90
2022-12-01T03:11:35.351Z,99.90
2022-12-01T03:14:29.578Z,99.90
2022-12-01T03:17:09.296Z,99.90
2022-12-01T03:19:55.727Z,99.90
2022-12-01T03:22:41.798Z,99.90
2022-12-01T03:25:18.043Z,99.90
2022-12-01T03:28:19.229Z,99.90
2022-12-01T03:30:39.505Z,99.90
2022-12-01T03:33:19.245Z,99.90
2022-12-01T03:36:10.887Z,99.90
2022-12-01T03:38:41.278Z,99.90
2022-12-01T03:41:16.041Z,99.90
2022-12-01T03:43:51.980Z,99.90
2022-12-01T03:46:33.388Z,99.90
2022-12-01T03:49:02.134Z,99.90
2022-12-01T03:51:44.942Z,99.90
2022-12-01T03:54:43.376Z,99.90
2022-12-01T03:57:18.240Z,99.90
2022-12-01T03:59:49.618Z,99.90
2022-12-01T04:02:18.450Z,99.90
2022-12-01T04:04:46.104Z,99.90
2022-12-01T04:07:14.470Z,99.90
2022-12-01T04:09:43.061Z,99.90
2022-12-01T04:12:32.627Z,99.90
2022-12-01T04:15:04.802Z,99.90
2022-12-01T04:17:32.601Z,99.90
2022-12-01T04:20:01.020Z,99.90
2022-12-01T04:22:28.618Z,99.90
2022-12-01T04:24:56.351Z,99.90
2022-12-01T04:27:24.217Z,99.90
2022-12-01T04:29:52.223Z,99.90
2022-12-01T04:32:26.225Z,99.90
2022-12-01T04:34:53.886Z,99.90
2022-12-01T04:37:24.295Z,99.90
2022-12-01T04:39:52.291Z,99.90
2022-12-01T04:42:20.015Z,99.90
2022-12-01T04:44:47.617Z,99.90
2022-12-01T04:47:15.169Z,99.90
2022-12-01T04:49:43.062Z,99.90
2022-12-01T04:52:10.944Z,99.90
2022-12-01T04:54:38.788Z,99.90
2022-12-01T04:57:06.368Z,99.90
2022-12-01T04:59:34.207Z,99.90
2022-12-01T05:02:05.129Z,99.90
2022-12-01T05:04:34.251Z,99.90
2022-12-01T05:07:01.896Z,99.90
2022-12-01T05:09:30.192Z,99.90
2022-12-01T05:11:57.839Z,99.90
2022-12-01T05:14:27.149Z,99.90
2022-12-01T05:16:56.042Z,99.90
2022-12-01T05:19:45.538Z,99.90
2022-12-01T05:22:13.169Z,99.90
2022-12-01T05:24:49.333Z,99.90
2022-12-01T05:27:16.951Z,99.90
2022-12-01T05:29:47.375Z,99.90
2022-12-01T05:32:16.768Z,99.90
2022-12-01T05:34:51.172Z,99.90
2022-12-01T05:37:18.892Z,99.90
2022-12-01T05:39:50.513Z,99.90
2022-12-01T05:42:21.932Z,99.90
2022-12-01T05:44:52.704Z,99.90
2022-12-01T05:47:20.534Z,99.90
2022-12-01T05:49:48.517Z,99.90
2022-12-01T05:52:16.515Z,99.90
2022-12-01T05:54:44.243Z,99.90
2022-12-01T05:57:12.278Z,99.90
2022-12-01T05:59:43.854Z,99.90
2022-12-01T06:02:11.916Z,99.90
2022-12-01T06:04:39.689Z,99.90
2022-12-01T06:07:07.354Z,99.90
2022-12-01T06:09:35.115Z,99.90
2022-12-01T06:12:05.909Z,99.90
2022-12-01T06:14:33.524Z,99.90
2022-12-01T06:17:01.190Z,99.90
2022-12-01T06:19:31.357Z,99.90
2022-12-01T06:21:58.974Z,99.90
2022-12-01T06:24:26.874Z,99.90
2022-12-01T06:26:58.205Z,99.90
2022-12-01T06:29:28.193Z,99.90
2022-12-01T06:31:55.938Z,99.90
2022-12-01T06:34:23.575Z,99.90
2022-12-01T06:36:51.119Z,99.90
2022-12-01T06:39:18.752Z,99.90
2022-12-01T06:41:46.534Z,99.90
2022-12-01T06:44:14.212Z,99.90
2022-12-01T06:46:42.421Z,99.90
2022-12-01T06:49:13.501Z,99.90
2022-12-01T06:51:44.016Z,99.90
2022-12-01T06:54:12.944Z,99.90
2022-12-01T06:56:43.160Z,99.90
2022-12-01T06:59:11.024Z,99.90
2022-12-01T07:01:48.815Z,99.90
2022-12-01T07:04:34.489Z,99.90
2022-12-01T07:07:08.724Z,99.90
2022-12-01T07:09:44.053Z,99.90
2022-12-01T07:12:16.711Z,99.90
2022-12-01T07:14:54.831Z,99.90
2022-12-01T07:17:23.769Z,99.90
2022-12-01T07:19:52.570Z,99.90
2022-12-01T07:22:21.460Z,99.90
2022-12-01T07:24:49.084Z,99.90
2022-12-01T07:27:16.764Z,99.90
2022-12-01T07:29:44.617Z,99.90
2022-12-01T07:32:12.284Z,99.90
2022-12-01T07:34:39.912Z,99.90
2022-12-01T07:37:07.550Z,99.90
2022-12-01T07:39:35.125Z,99.90
2022-12-01T07:42:03.397Z,99.90
2022-12-01T07:44:31.122Z,99.90
2022-12-01T07:46:58.925Z,99.90
2022-12-01T07:49:26.598Z,99.90
2022-12-01T07:51:54.462Z,99.90
2022-12-01T07:54:22.262Z,99.90
2022-12-01T07:56:49.929Z,99.90
2022-12-01T07:59:18.915Z,99.90
2022-12-01T08:01:47.619Z,99.90
2022-12-01T08:04:15.295Z,99.90
2022-12-01T08:06:43.104Z,99.90
2022-12-01T08:09:10.788Z,99.90
2022-12-01T08:11:39.889Z,99.90
2022-12-01T08:14:07.766Z,99.90
2022-12-01T08:16:35.572Z,99.90
2022-12-01T08:19:35.556Z,99.90
2022-12-01T08:22:29.649Z,99.90
2022-12-01T08:25:02.213Z,99.90
2022-12-01T08:27:30.789Z,99.90
2022-12-01T08:29:58.307Z,99.90
2022-12-01T08:32:26.145Z,99.90
2022-12-01T08:35:16.658Z,99.90
2022-12-01T08:37:53.709Z,99.90
2022-12-01T08:40:22.472Z,99.90
2022-12-01T08:42:56.126Z,99.90
2022-12-01T08:45:26.568Z,99.90
2022-12-01T08:47:58.927Z,99.90
2022-12-01T08:50:27.806Z,99.90
2022-12-01T08:52:55.452Z,99.90
2022-12-01T08:55:25.973Z,99.90
2022-12-01T08:57:53.672Z,99.90
2022-12-01T09:00:21.320Z,99.90
2022-12-01T09:02:50.073Z,99.90
2022-12-01T09:05:17.600Z,99.90
2022-12-01T09:08:05.015Z,99.90
2022-12-01T09:10:32.576Z,99.90
2022-12-01T09:13:00.156Z,99.90
2022-12-01T09:15:27.700Z,99.90
2022-12-01T09:17:55.237Z,99.90
2022-12-01T09:20:22.939Z,99.90
2022-12-01T09:22:50.464Z,99.90
2022-12-01T09:25:17.940Z,99.90
2022-12-01T09:27:45.541Z,99.90
2022-12-01T09:30:13.402Z,99.90
2022-12-01T09:32:40.933Z,99.90
2022-12-01T09:35:08.641Z,99.90
2022-12-01T09:37:36.165Z,99.90
2022-12-01T09:40:03.970Z,99.90
2022-12-01T09:42:35.359Z,99.90
2022-12-01T09:45:05.046Z,99.90
2022-12-01T09:47:35.649Z,99.90
2022-12-01T09:50:12.295Z,99.90
2022-12-01T09:52:45.827Z,99.90
2022-12-01T09:55:15.335Z,99.90
2022-12-01T09:57:43.732Z,99.90
2022-12-01T10:00:24.121Z,99.90
2022-12-01T10:03:01.627Z,99.90
2022-12-01T10:09:11.536Z,99.90
2022-12-01T10:11:42.542Z,99.90
2022-12-01T10:14:20.092Z,99.90
2022-12-01T10:16:54.482Z,99.90
2022-12-01T10:19:46.136Z,99.90
2022-12-01T10:22:47.771Z,99.90
2022-12-01T10:25:23.002Z,99.90
2022-12-01T10:28:06.006Z,99.90
2022-12-01T10:30:40.965Z,99.90
2022-12-01T10:33:08.496Z,99.90
2022-12-01T10:35:37.828Z,99.90
2022-12-01T10:38:12.575Z,99.90
2022-12-01T10:40:41.637Z,99.90
2022-12-01T10:43:10.842Z,99.90
2022-12-01T10:45:41.294Z,99.90
2022-12-01T10:48:17.657Z,99.90
2022-12-01T10:50:51.569Z,99.90
2022-12-01T10:53:34.390Z,99.90
2022-12-01T10:56:15.964Z,99.90
2022-12-01T10:58:53.981Z,99.90
2022-12-01T11:01:27.870Z,99.90
2022-12-01T11:04:08.728Z,99.90
2022-12-01T11:06:37.618Z,99.90
2022-12-01T11:09:21.537Z,99.90
2022-12-01T11:12:02.550Z,99.90
2022-12-01T11:14:49.687Z,99.90
2022-12-01T11:17:35.888Z,99.90
2022-12-01T11:20:33.636Z,99.90
2022-12-01T11:23:22.279Z,99.90
2022-12-01T11:26:01.969Z,99.90
2022-12-01T11:28:30.850Z,99.90
2022-12-01T11:31:07.507Z,99.90
2022-12-01T11:33:47.645Z,99.90
2022-12-01T11:36:33.526Z,99.90
2022-12-01T11:39:02.327Z,99.90
2022-12-01T11:41:42.791Z,99.90
2022-12-01T11:47:26.826Z,99.90
2022-12-01T11:50:00.480Z,99.80
2022-12-01T11:52:34.048Z,99.70
2022-12-01T11:55:13.862Z,99.50
2022-12-01T11:57:43.997Z,99.60
2022-12-01T12:00:15.250Z,99.70
2022-12-01T12:03:04.596Z,99.20
2022-12-01T12:05:45.925Z,98.90
2022-12-01T12:08:19.371Z,98.40
2022-12-01T12:11:09.499Z,97.30
2022-12-01T12:14:14.650Z,97.70
2022-12-01T12:16:45.021Z,96.40
2022-12-01T12:20:07.091Z,95.90
2022-12-01T12:23:01.699Z,95.10
2022-12-01T12:25:48.047Z,93.80
2022-12-01T12:28:38.888Z,94.10
2022-12-01T12:31:27.826Z,94.90
2022-12-01T12:34:16.096Z,94.80
2022-12-01T12:37:21.396Z,94.50
2022-12-01T12:40:15.440Z,95.60
2022-12-01T12:43:04.071Z,96.20
2022-12-01T12:45:39.643Z,97.40
2022-12-01T12:48:32.725Z,97.30
2022-12-01T12:51:18.007Z,98.40
2022-12-01T12:53:51.691Z,97.90
2022-12-01T12:56:23.463Z,99.40
2022-12-01T12:59:01.287Z,98.70
2022-12-01T13:01:55.790Z,97.80
2022-12-01T13:04:31.278Z,98.70
2022-12-01T13:07:40.276Z,98.80
2022-12-01T13:10:16.450Z,98.80
2022-12-01T13:12:54.271Z,99.50
2022-12-01T13:15:22.460Z,99.30
2022-12-01T13:17:54.152Z,99.90
2022-12-01T13:20:27.810Z,99.60
2022-12-01T13:22:57.829Z,98.40
2022-12-01T13:25:31.423Z,98.40
2022-12-01T13:28:03.207Z,98.00
2022-12-01T13:30:30.739Z,98.70
2022-12-01T13:33:06.605Z,98.30
2022-12-01T13:35:40.000Z,99.00
2022-12-01T13:38:33.769Z,99.20
2022-12-01T13:41:28.480Z,98.80
2022-12-01T13:43:58.763Z,98.10
2022-12-01T13:47:09.930Z,99.30
2022-12-01T13:49:47.989Z,98.80
2022-12-01T13:52:21.768Z,98.40
2022-12-01T13:55:10.888Z,98.90
2022-12-01T13:57:44.455Z,99.30
2022-12-01T14:00:30.318Z,99.30
2022-12-01T14:03:13.314Z,99.10
2022-12-01T14:05:52.504Z,99.10
2022-12-01T14:08:28.604Z,99.60
2022-12-01T14:11:22.093Z,99.60
2022-12-01T14:14:12.216Z,99.90
2022-12-01T14:16:55.017Z,99.80
2022-12-01T14:19:25.867Z,99.20
2022-12-01T14:21:53.629Z,99.90
2022-12-01T14:24:38.064Z,99.90
2022-12-01T14:27:06.599Z,99.90
2022-12-01T14:29:38.937Z,99.90
2022-12-01T14:32:24.555Z,99.90
2022-12-01T14:34:53.861Z,99.90
2022-12-01T14:37:26.421Z,99.90
2022-12-01T14:40:04.221Z,99.90
2022-12-01T14:43:07.016Z,99.90
2022-12-01T14:45:55.773Z,99.90
2022-12-01T14:48:33.065Z,99.90
2022-12-01T14:51:24.038Z,99.90
2022-12-01T14:53:53.250Z,99.90
2022-12-01T14:56:24.125Z,99.90
2022-12-01T14:58:54.829Z,99.90
2022-12-01T15:01:24.177Z,99.90
2022-12-01T15:03:59.358Z,99.90
2022-12-01T15:06:28.856Z,99.90
2022-12-01T15:12:07.809Z,99.90
2022-12-01T15:14:54.093Z,99.90
2022-12-01T15:17:32.814Z,99.90
2022-12-01T15:20:04.243Z,99.90
2022-12-01T15:22:34.189Z,99.90
2022-12-01T15:25:17.837Z,99.90
2022-12-01T15:27:46.052Z,99.90
2022-12-01T15:30:19.704Z,99.90
2022-12-01T15:32:51.066Z,99.90
2022-12-01T15:35:23.397Z,99.90
2022-12-01T15:37:55.925Z,99.90
2022-12-01T15:43:37.734Z,99.90
2022-12-01T15:46:17.411Z,99.90
2022-12-01T15:48:46.160Z,99.90
2022-12-01T15:51:24.412Z,99.90
2022-12-01T15:53:58.699Z,99.90
2022-12-01T15:56:34.528Z,99.90
2022-12-01T15:59:49.009Z,99.90
2022-12-01T16:02:28.398Z,99.90
2022-12-01T16:05:18.222Z,99.90
2022-12-01T16:08:12.557Z,99.90
2022-12-01T16:10:37.353Z,99.90
2022-12-01T16:13:39.396Z,99.90
2022-12-01T16:16:37.510Z,99.90
2022-12-01T16:19:08.133Z,99.90
2022-12-01T16:22:14.220Z,99.90
2022-12-01T16:24:54.098Z,99.90
2022-12-01T16:27:30.153Z,99.90
2022-12-01T16:30:01.961Z,99.90
2022-12-01T16:32:36.733Z,99.90
2022-12-01T16:35:06.123Z,99.90
2022-12-01T16:37:33.800Z,99.90
2022-12-01T16:40:01.476Z,99.90
2022-12-01T16:42:29.549Z,99.90
2022-12-01T16:44:57.106Z,99.90
2022-12-01T16:47:25.692Z,99.90
2022-12-01T16:49:53.690Z,99.90
2022-12-01T16:52:43.827Z,99.90
2022-12-01T16:55:46.636Z,99.90
2022-12-01T16:58:14.775Z,99.90
2022-12-01T17:01:02.780Z,99.90
2022-12-01T17:03:51.099Z,99.90
2022-12-01T17:06:25.219Z,99.90
2022-12-01T17:08:57.446Z,99.90
2022-12-01T17:11:25.216Z,99.90
2022-12-01T17:13:53.329Z,99.90
2022-12-01T17:16:21.247Z,99.90
2022-12-01T17:18:48.914Z,99.90
2022-12-01T17:21:17.532Z,99.90
2022-12-01T17:23:53.981Z,99.90
2022-12-01T17:26:22.987Z,99.90
2022-12-01T17:28:50.751Z,99.90
2022-12-01T17:31:18.292Z,99.90
2022-12-01T17:33:46.533Z,99.90
2022-12-01T17:36:15.296Z,99.90
2022-12-01T17:38:45.935Z,99.90
2022-12-01T17:47:22.656Z,99.90
2022-12-01T17:49:53.413Z,99.90
2022-12-01T17:52:25.398Z,99.90
2022-12-01T17:54:56.546Z,99.90
2022-12-01T17:57:31.985Z,99.90
2022-12-01T18:00:04.053Z,99.90
2022-12-01T18:02:43.647Z,99.90
2022-12-01T18:09:09.759Z,99.90
2022-12-01T18:11:42.590Z,99.90
2022-12-01T18:14:22.680Z,99.90
2022-12-01T18:16:56.742Z,99.90
2022-12-01T18:19:24.670Z,99.90
2022-12-01T18:21:59.857Z,99.90
2022-12-01T18:24:37.149Z,99.90
2022-12-01T18:27:05.090Z,99.90
2022-12-01T18:29:38.783Z,99.90
2022-12-01T18:32:06.891Z,99.90
2022-12-01T18:34:35.316Z,99.90
2022-12-01T18:37:03.750Z,99.90
2022-12-01T18:39:31.981Z,99.90
2022-12-01T18:41:59.736Z,99.90
2022-12-01T18:44:31.202Z,99.90
2022-12-01T18:47:02.821Z,99.90
2022-12-01T18:49:30.618Z,99.90
2022-12-01T18:51:59.939Z,99.90
2022-12-01T18:54:29.873Z,99.90
2022-12-01T18:56:59.067Z,99.90
2022-12-01T18:59:27.156Z,99.90
2022-12-01T19:01:55.088Z,99.90
2022-12-01T19:04:22.828Z,99.90
2022-12-01T19:06:51.364Z,99.90
2022-12-01T19:09:19.178Z,99.90
2022-12-01T19:11:47.978Z,99.90
2022-12-01T19:14:24.083Z,99.90
2022-12-01T19:16:53.495Z,99.90
2022-12-01T19:19:22.572Z,99.90
2022-12-01T19:21:51.724Z,99.90
2022-12-01T19:24:20.518Z,99.90
2022-12-01T19:26:48.323Z,99.90
2022-12-01T19:29:16.569Z,99.90
2022-12-01T19:31:46.915Z,99.90
2022-12-01T19:34:17.528Z,99.90
2022-12-01T19:36:45.198Z,99.90
2022-12-01T19:39:12.932Z,99.90
2022-12-01T19:41:40.587Z,99.90
2022-12-01T19:44:09.615Z,99.90
2022-12-01T19:46:40.427Z,99.90
2022-12-01T19:49:11.768Z,99.90
2022-12-01T19:51:45.172Z,99.90
2022-12-01T19:54:20.598Z,99.90
2022-12-01T19:56:49.402Z,99.90
2022-12-01T19:59:16.871Z,99.90
2022-12-01T20:01:45.698Z,99.90
2022-12-01T20:04:13.320Z,99.90
2022-12-01T20:06:40.972Z,99.90
2022-12-01T20:09:15.888Z,99.90
2022-12-01T20:11:46.283Z,99.90
2022-12-01T20:14:14.816Z,99.90
2022-12-01T20:16:44.677Z,99.90
2022-12-01T20:19:12.495Z,99.90
2022-12-01T20:21:43.190Z,99.90
2022-12-01T20:24:14.072Z,99.90
2022-12-01T20:26:50.821Z,99.90
2022-12-01T20:29:24.031Z,99.90
2022-12-01T20:31:55.305Z,99.90
2022-12-01T20:34:32.990Z,99.90
2022-12-01T20:37:02.178Z,99.90
2022-12-01T20:39:32.659Z,99.90
2022-12-01T20:42:06.388Z,99.90
2022-12-01T20:44:35.198Z,99.90
2022-12-01T20:47:06.212Z,99.90
2022-12-01T20:49:34.935Z,99.90
2022-12-01T20:52:05.231Z,99.90
2022-12-01T20:55:06.905Z,99.90
2022-12-01T21:01:44.942Z,99.90
2022-12-01T21:04:30.790Z,99.90
2022-12-01T21:07:00.331Z,99.90
2022-12-01T21:09:27.916Z,99.90
2022-12-01T21:12:17.336Z,99.90
2022-12-01T21:14:50.703Z,99.90
2022-12-01T21:17:35.536Z,99.90
2022-12-01T21:20:21.595Z,99.90
2022-12-01T21:22:50.767Z,99.90
2022-12-01T21:25:21.290Z,99.90
2022-12-01T21:27:49.543Z,99.90
2022-12-01T21:30:18.912Z,99.90
2022-12-01T21:32:48.209Z,99.90
2022-12-01T21:35:17.279Z,99.90
2022-12-01T21:37:45.789Z,99.90
2022-12-01T21:40:17.694Z,99.90
2022-12-01T21:42:45.661Z,99.90
2022-12-01T21:45:24.709Z,99.90
2022-12-01T21:47:53.126Z,99.90
2022-12-01T21:50:24.375Z,99.90
2022-12-01T21:52:52.066Z,99.90
2022-12-01T21:55:19.624Z,99.90
2022-12-01T21:57:48.871Z,99.90
2022-12-01T22:00:35.355Z,99.90
2022-12-01T22:03:14.717Z,99.90
2022-12-01T22:06:01.123Z,99.90
2022-12-01T22:08:34.757Z,99.90
2022-12-01T22:11:18.796Z,99.90
2022-12-01T22:14:09.277Z,99.90
2022-12-01T22:16:45.694Z,99.90
2022-12-01T22:19:17.279Z,99.90
2022-12-01T22:21:46.994Z,99.90
2022-12-01T22:24:22.903Z,99.90
2022-12-01T22:27:23.636Z,99.90
2022-12-01T22:30:01.879Z,99.90
2022-12-01T22:32:37.397Z,99.90
2022-12-01T22:35:24.617Z,99.90
2022-12-01T22:38:13.747Z,99.90
2022-12-01T22:40:51.539Z,99.90
2022-12-01T22:43:18.986Z,99.90
2022-12-01T22:45:53.939Z,99.90
2022-12-01T22:48:27.564Z,99.90
2022-12-01T22:50:55.639Z,99.90
2022-12-01T22:53:32.111Z,99.90
2022-12-01T22:56:01.520Z,99.90
2022-12-01T22:58:32.096Z,99.90
2022-12-01T23:01:17.788Z,99.90
2022-12-01T23:03:45.348Z,99.90
2022-12-01T23:06:52.166Z,99.90
2022-12-01T23:09:22.159Z,99.90
2022-12-01T23:12:10.158Z,99.90
2022-12-01T23:14:47.362Z,99.90
2022-12-01T23:17:30.745Z,99.90
2022-12-01T23:20:20.918Z,99.90
2022-12-01T23:22:48.758Z,99.90
2022-12-01T23:25:18.443Z,99.90
2022-12-01T23:27:48.822Z,99.90
2022-12-01T23:30:17.948Z,99.90
2022-12-01T23:32:51.930Z,99.90
2022-12-01T23:35:19.491Z,99.90
2022-12-01T23:37:48.116Z,99.90
2022-12-01T23:40:19.186Z,99.90
2022-12-01T23:42:46.929Z,99.90
2022-12-01T23:45:24.743Z,99.90
2022-12-01T23:47:54.642Z,99.90
2022-12-01T23:50:25.093Z,99.90
2022-12-01T23:52:53.503Z,99.90
2022-12-01T23:55:29.388Z,99.90
2022-12-01T23:57:58.453Z,99.90
